createdAt,value
2019-03-25T00:01:29.179Z,136.33
2019-03-25T00:04:01.161Z,127.80
2019-03-25T00:06:33.341Z,129.97
2019-03-25T00:09:07.286Z,138.77
2019-03-25T00:11:39.231Z,137.50
2019-03-25T00:14:11.400Z,140.23
2019-03-25T00:16:43.279Z,142.00
2019-03-25T00:19:15.186Z,142.10
2019-03-25T00:21:47.221Z,139.33
2019-03-25T00:24:19.522Z,131.60
2019-03-25T00:26:51.329Z,136.20
2019-03-25T00:29:23.149Z,142.87
2019-03-25T00:31:55.071Z,140.53
2019-03-25T00:34:26.963Z,136.80
2019-03-25T00:36:58.859Z,154.60
2019-03-25T00:39:30.725Z,157.00
2019-03-25T00:42:02.726Z,134.80
2019-03-25T00:44:34.614Z,147.80
2019-03-25T00:47:06.714Z,146.53
2019-03-25T00:49:38.811Z,138.80
2019-03-25T00:52:10.792Z,160.73
2019-03-25T00:54:49.907Z,140.43
2019-03-25T00:57:16.358Z,151.23
2019-03-25T00:59:49.054Z,140.40
2019-03-25T01:02:21.084Z,141.97
2019-03-25T01:04:52.901Z,145.20
2019-03-25T01:07:25.035Z,133.67
2019-03-25T01:09:56.938Z,136.47
2019-03-25T01:12:28.943Z,134.30
2019-03-25T01:15:00.800Z,131.83
2019-03-25T01:17:32.683Z,131.30
2019-03-25T01:20:05.956Z,134.03
2019-03-25T01:22:37.912Z,132.13
2019-03-25T01:25:10.482Z,126.07
2019-03-25T01:27:42.441Z,125.13
2019-03-25T01:30:14.726Z,129.00
2019-03-25T01:32:46.546Z,124.20
2019-03-25T01:35:18.458Z,130.10
2019-03-25T01:37:50.394Z,129.87
2019-03-25T01:40:22.234Z,136.47
2019-03-25T01:42:54.089Z,130.23
2019-03-25T01:45:26.108Z,127.40
2019-03-25T01:47:59.078Z,138.50
2019-03-25T01:50:31.164Z,135.00
2019-03-25T01:53:03.038Z,132.83
2019-03-25T01:55:34.896Z,133.00
2019-03-25T01:58:06.816Z,128.53
2019-03-25T02:00:38.959Z,119.70
2019-03-25T02:03:10.839Z,130.93
2019-03-25T02:05:42.826Z,124.27
2019-03-25T02:08:14.703Z,130.90
2019-03-25T02:10:46.605Z,129.63
2019-03-25T02:13:18.616Z,137.67
2019-03-25T02:15:50.601Z,131.10
2019-03-25T02:18:22.548Z,128.50
2019-03-25T02:20:54.511Z,124.17
2019-03-25T02:23:26.339Z,135.67
2019-03-25T02:25:58.191Z,147.13
2019-03-25T02:28:30.195Z,142.80
2019-03-25T02:31:02.166Z,136.67
2019-03-25T02:33:34.218Z,139.70
2019-03-25T02:36:06.104Z,143.93
2019-03-25T02:38:38.071Z,139.87
2019-03-25T02:41:11.656Z,127.83
2019-03-25T02:43:43.560Z,144.73
2019-03-25T02:46:15.565Z,139.37
2019-03-25T02:48:47.912Z,135.53
2019-03-25T02:51:19.777Z,136.07
2019-03-25T02:53:51.666Z,143.37
2019-03-25T02:56:23.590Z,139.40
2019-03-25T02:58:55.401Z,147.57
2019-03-25T03:01:27.534Z,142.70
2019-03-25T03:03:59.510Z,147.60
2019-03-25T03:06:32.435Z,142.53
2019-03-25T03:09:05.165Z,151.13
2019-03-25T03:11:37.319Z,157.67
2019-03-25T03:14:09.404Z,156.40
2019-03-25T03:16:41.256Z,147.30
2019-03-25T03:19:13.416Z,161.70
2019-03-25T03:21:45.318Z,151.10
2019-03-25T03:24:17.123Z,150.63
2019-03-25T03:26:49.037Z,160.47
2019-03-25T03:29:20.860Z,145.67
2019-03-25T03:31:52.691Z,162.00
2019-03-25T03:34:24.604Z,167.17
2019-03-25T03:36:56.514Z,172.87
2019-03-25T03:39:29.496Z,155.80
2019-03-25T03:42:02.416Z,170.70
2019-03-25T03:44:34.247Z,162.07
2019-03-25T03:47:06.360Z,157.57
2019-03-25T03:49:38.290Z,155.97
2019-03-25T03:52:10.469Z,163.80
2019-03-25T03:54:42.404Z,175.57
2019-03-25T03:57:14.918Z,161.83
2019-03-25T03:59:47.037Z,164.80
2019-03-25T04:02:18.979Z,156.20
2019-03-25T04:04:51.013Z,150.80
2019-03-25T04:07:23.100Z,152.73
2019-03-25T04:09:54.987Z,159.87
2019-03-25T04:12:27.298Z,152.67
2019-03-25T04:14:59.301Z,159.17
2019-03-25T04:17:31.404Z,152.03
2019-03-25T04:20:03.324Z,139.80
2019-03-25T04:22:35.166Z,140.77
2019-03-25T04:25:07.441Z,149.13
2019-03-25T04:27:39.375Z,141.37
2019-03-25T04:30:11.435Z,147.77
2019-03-25T04:32:43.501Z,151.17
2019-03-25T04:35:15.417Z,142.33
2019-03-25T04:37:47.337Z,144.57
2019-03-25T04:40:19.401Z,136.53
2019-03-25T04:42:51.391Z,123.70
2019-03-25T04:45:23.358Z,137.70
2019-03-25T04:47:55.526Z,133.60
2019-03-25T04:50:27.444Z,134.07
2019-03-25T04:52:59.456Z,138.43
2019-03-25T04:55:31.381Z,142.63
2019-03-25T04:58:03.382Z,149.47
2019-03-25T05:00:37.460Z,142.40
2019-03-25T05:03:09.424Z,153.70
2019-03-25T05:05:41.291Z,147.70
2019-03-25T05:08:13.263Z,148.33
2019-03-25T05:10:45.763Z,148.40
2019-03-25T05:13:17.625Z,151.07
2019-03-25T05:15:49.557Z,151.73
2019-03-25T05:18:21.539Z,240.27
2019-03-25T05:20:53.364Z,151.90
2019-03-25T05:23:25.473Z,145.17
2019-03-25T05:25:57.496Z,145.03
2019-03-25T05:28:29.374Z,147.00
2019-03-25T05:31:01.319Z,134.33
2019-03-25T05:33:33.205Z,145.07
2019-03-25T05:36:05.293Z,143.53
2019-03-25T05:38:37.311Z,147.27
2019-03-25T05:41:09.389Z,142.27
2019-03-25T05:43:41.449Z,144.67
2019-03-25T05:46:13.319Z,143.30
2019-03-25T05:48:46.277Z,135.80
2019-03-25T05:51:18.353Z,127.83
2019-03-25T05:53:50.533Z,134.00
2019-03-25T05:56:22.831Z,129.17
2019-03-25T05:58:54.752Z,119.20
2019-03-25T06:01:27.039Z,118.23
2019-03-25T06:03:59.919Z,111.70
2019-03-25T06:06:31.982Z,101.13
2019-03-25T06:09:04.934Z,96.40
2019-03-25T06:11:37.038Z,88.03
2019-03-25T06:14:08.995Z,85.60
2019-03-25T06:16:40.846Z,89.07
2019-03-25T06:19:12.706Z,87.10
2019-03-25T06:21:45.747Z,98.47
2019-03-25T06:24:17.598Z,97.93
2019-03-25T06:26:49.685Z,106.83
2019-03-25T06:29:21.520Z,105.37
2019-03-25T06:31:53.454Z,94.20
2019-03-25T06:34:25.540Z,78.20
2019-03-25T06:36:57.489Z,77.20
2019-03-25T06:39:29.463Z,76.80
2019-03-25T06:42:01.495Z,64.33
2019-03-25T06:44:33.383Z,59.97
2019-03-25T06:47:05.351Z,48.87
2019-03-25T06:49:37.193Z,58.23
2019-03-25T06:52:09.057Z,46.40
2019-03-25T06:54:40.925Z,49.93
2019-03-25T06:57:12.787Z,51.20
2019-03-25T06:59:44.974Z,53.30
2019-03-25T07:02:16.997Z,43.70
2019-03-25T07:04:48.858Z,48.40
2019-03-25T07:07:20.695Z,39.67
2019-03-25T07:09:52.508Z,54.43
2019-03-25T07:12:24.890Z,39.37
2019-03-25T07:14:56.878Z,44.53
2019-03-25T07:17:28.769Z,41.20
2019-03-25T07:20:00.703Z,39.97
2019-03-25T07:22:32.607Z,42.80
2019-03-25T07:25:04.856Z,43.97
2019-03-25T07:27:37.405Z,40.80
2019-03-25T07:30:11.596Z,37.50
2019-03-25T07:32:43.473Z,47.80
2019-03-25T07:35:15.435Z,43.07
2019-03-25T07:37:47.218Z,46.93
2019-03-25T07:40:19.303Z,41.67
2019-03-25T07:42:51.378Z,47.00
2019-03-25T07:45:23.253Z,45.10
2019-03-25T07:47:55.197Z,47.43
2019-03-25T07:50:27.360Z,42.23
2019-03-25T07:52:59.440Z,44.47
2019-03-25T07:55:31.436Z,40.30
2019-03-25T07:58:03.439Z,45.90
2019-03-25T08:00:35.355Z,43.70
2019-03-25T08:03:07.368Z,52.03
2019-03-25T08:05:39.295Z,42.07
2019-03-25T08:08:11.220Z,35.50
2019-03-25T08:10:43.277Z,39.40
2019-03-25T08:13:15.308Z,41.27
2019-03-25T08:15:47.191Z,38.13
2019-03-25T08:18:19.349Z,33.10
2019-03-25T08:20:51.300Z,40.67
2019-03-25T08:23:23.239Z,32.20
2019-03-25T08:25:55.362Z,36.50
2019-03-25T08:28:27.421Z,36.53
2019-03-25T08:30:59.316Z,41.73
2019-03-25T08:33:31.317Z,38.33
2019-03-25T08:36:03.258Z,45.63
2019-03-25T08:38:35.204Z,35.83
2019-03-25T08:41:07.293Z,36.97
2019-03-25T08:43:39.180Z,33.00
2019-03-25T08:46:11.078Z,31.73
2019-03-25T08:48:43.107Z,35.30
2019-03-25T08:51:15.209Z,34.83
2019-03-25T08:53:47.161Z,30.90
2019-03-25T08:56:19.142Z,39.80
2019-03-25T08:58:51.020Z,34.53
2019-03-25T09:01:23.032Z,29.50
2019-03-25T09:03:55.077Z,41.83
2019-03-25T09:06:27.010Z,42.00
2019-03-25T09:08:59.002Z,35.07
2019-03-25T09:11:30.986Z,31.67
2019-03-25T09:14:02.847Z,31.87
2019-03-25T09:16:34.708Z,25.97
2019-03-25T09:19:07.000Z,26.67
2019-03-25T09:21:39.043Z,26.37
2019-03-25T09:24:10.990Z,29.87
2019-03-25T09:26:42.971Z,22.93
2019-03-25T09:29:15.136Z,29.63
2019-03-25T09:31:47.139Z,32.77
2019-03-25T09:34:19.142Z,28.83
2019-03-25T09:36:50.953Z,25.23
2019-03-25T09:39:22.773Z,34.40
2019-03-25T09:41:54.672Z,32.20
2019-03-25T09:44:26.607Z,25.70
2019-03-25T09:46:58.604Z,27.03
2019-03-25T09:49:30.570Z,31.17
2019-03-25T09:52:02.581Z,25.57
2019-03-25T09:54:34.574Z,27.30
2019-03-25T09:57:06.655Z,24.00
2019-03-25T09:59:38.474Z,29.47
2019-03-25T10:02:10.449Z,24.63
2019-03-25T10:04:42.429Z,28.00
2019-03-25T10:07:23.604Z,27.83
2019-03-25T10:09:55.884Z,24.30
2019-03-25T10:12:28.231Z,23.73
2019-03-25T10:15:00.352Z,16.87
2019-03-25T10:17:32.355Z,19.37
2019-03-25T10:20:04.566Z,23.87
2019-03-25T10:22:36.445Z,18.93
2019-03-25T10:25:09.585Z,21.77
2019-03-25T10:27:41.742Z,18.80
2019-03-25T10:30:14.887Z,15.30
2019-03-25T10:32:46.801Z,19.47
2019-03-25T10:35:18.790Z,15.40
2019-03-25T10:37:50.672Z,22.77
2019-03-25T10:40:22.704Z,17.90
2019-03-25T10:42:54.675Z,7.67
2019-03-25T10:45:27.049Z,11.10
2019-03-25T10:47:58.995Z,13.57
2019-03-25T10:50:30.957Z,19.47
2019-03-25T10:53:02.996Z,8.50
2019-03-25T10:55:35.101Z,8.83
2019-03-25T10:58:07.072Z,9.87
2019-03-25T11:00:39.542Z,8.30
2019-03-25T11:03:12.294Z,7.00
2019-03-25T11:05:44.382Z,12.57
2019-03-25T11:08:16.194Z,6.17
2019-03-25T11:10:49.349Z,7.77
2019-03-25T11:13:21.313Z,4.93
2019-03-25T11:15:53.441Z,10.93
2019-03-25T11:18:25.297Z,5.80
2019-03-25T11:20:57.197Z,7.43
2019-03-25T11:23:29.007Z,4.80
2019-03-25T11:26:00.825Z,7.03
2019-03-25T11:28:32.694Z,6.20
2019-03-25T11:31:04.795Z,7.10
2019-03-25T11:33:36.724Z,6.57
2019-03-25T11:36:08.997Z,14.13
2019-03-25T11:38:40.958Z,3.97
2019-03-25T11:41:13.133Z,10.80
2019-03-25T11:43:45.022Z,5.97
2019-03-25T11:46:17.095Z,3.30
2019-03-25T11:48:48.957Z,4.47
2019-03-25T11:51:20.887Z,10.30
2019-03-25T11:53:52.892Z,4.20
2019-03-25T11:56:24.866Z,6.43
2019-03-25T11:58:56.857Z,6.73
2019-03-25T12:01:28.758Z,2.80
2019-03-25T12:04:00.739Z,8.30
2019-03-25T12:06:32.725Z,15.27
2019-03-25T12:09:06.752Z,2.60
2019-03-25T12:11:38.585Z,6.93
2019-03-25T12:14:10.651Z,6.20
2019-03-25T12:16:42.625Z,7.70
2019-03-25T12:19:14.454Z,5.50
2019-03-25T12:21:46.529Z,8.80
2019-03-25T12:24:18.696Z,11.33
2019-03-25T12:26:50.740Z,9.67
2019-03-25T12:29:30.035Z,16.93
2019-03-25T12:31:56.240Z,7.43
2019-03-25T12:34:28.180Z,7.03
2019-03-25T12:37:00.377Z,4.07
2019-03-25T12:39:33.422Z,5.67
2019-03-25T12:42:06.557Z,6.00
2019-03-25T12:44:38.577Z,3.73
2019-03-25T12:47:10.485Z,6.30
2019-03-25T12:49:42.299Z,16.77
2019-03-25T12:52:14.268Z,8.80
2019-03-25T12:54:46.354Z,14.40
2019-03-25T12:57:18.413Z,11.43
2019-03-25T12:59:50.308Z,9.43
2019-03-25T13:02:22.466Z,6.30
2019-03-25T13:04:54.438Z,4.13
2019-03-25T13:07:26.652Z,6.10
2019-03-25T13:09:58.778Z,8.10
2019-03-25T13:12:30.742Z,5.27
2019-03-25T13:15:02.680Z,3.30
2019-03-25T13:17:34.901Z,5.97
2019-03-25T13:20:07.440Z,4.50
2019-03-25T13:22:39.273Z,5.70
2019-03-25T13:25:11.367Z,11.63
2019-03-25T13:27:43.327Z,6.80
2019-03-25T13:30:15.890Z,19.43
2019-03-25T13:32:47.887Z,7.37
2019-03-25T13:35:19.700Z,8.30
2019-03-25T13:37:51.666Z,7.80
2019-03-25T13:40:23.744Z,6.70
2019-03-25T13:42:55.737Z,10.30
2019-03-25T13:45:27.667Z,3.80
2019-03-25T13:47:59.703Z,8.90
2019-03-25T13:50:31.597Z,7.40
2019-03-25T13:53:03.535Z,4.93
2019-03-25T13:55:35.722Z,3.90
2019-03-25T13:58:07.514Z,6.70
2019-03-25T14:00:41.503Z,12.33
2019-03-25T14:03:13.479Z,18.03
2019-03-25T14:05:45.298Z,5.30
2019-03-25T14:08:18.080Z,10.00
2019-03-25T14:10:49.860Z,9.50
2019-03-25T14:13:21.803Z,8.53
2019-03-25T14:15:53.706Z,4.93
2019-03-25T14:18:25.622Z,6.67
2019-03-25T14:20:57.433Z,2.60
2019-03-25T14:23:29.239Z,6.70
2019-03-25T14:26:01.320Z,6.70
2019-03-25T14:28:33.311Z,5.67
2019-03-25T14:31:05.261Z,7.10
2019-03-25T14:33:37.225Z,4.10
2019-03-25T14:36:09.096Z,8.33
2019-03-25T14:38:41.206Z,5.63
2019-03-25T14:41:13.005Z,3.93
2019-03-25T14:43:44.838Z,6.27
2019-03-25T14:46:16.821Z,6.63
2019-03-25T14:48:48.670Z,5.33
2019-03-25T14:51:20.471Z,6.63
2019-03-25T14:53:52.384Z,9.47
2019-03-25T14:56:24.255Z,6.90
2019-03-25T14:58:56.298Z,9.77
2019-03-25T15:01:28.169Z,12.13
2019-03-25T15:04:00.000Z,7.53
2019-03-25T15:06:34.096Z,10.23
2019-03-25T15:09:07.529Z,7.70
2019-03-25T15:11:39.815Z,7.80
2019-03-25T15:14:11.882Z,4.63
2019-03-25T15:16:43.824Z,5.37
2019-03-25T15:19:16.285Z,5.20
2019-03-25T15:21:48.238Z,6.80
2019-03-25T15:24:20.149Z,11.10
2019-03-25T15:26:52.291Z,5.70
2019-03-25T15:29:24.267Z,10.47
2019-03-25T15:31:56.303Z,10.87
2019-03-25T15:34:28.220Z,5.07
2019-03-25T15:37:00.072Z,5.40
2019-03-25T15:39:31.902Z,5.40
2019-03-25T15:42:03.710Z,4.57
2019-03-25T15:44:35.679Z,4.53
2019-03-25T15:47:07.585Z,5.13
2019-03-25T15:49:39.683Z,10.40
2019-03-25T15:52:11.713Z,6.20
2019-03-25T15:54:43.506Z,4.73
2019-03-25T15:57:15.477Z,5.13
2019-03-25T15:59:47.681Z,10.23
2019-03-25T16:02:19.626Z,9.50
2019-03-25T16:04:51.485Z,7.80
2019-03-25T16:07:23.474Z,7.03
2019-03-25T16:09:55.284Z,9.60
2019-03-25T16:12:27.178Z,7.03
2019-03-25T16:14:59.199Z,6.67
2019-03-25T16:17:31.000Z,8.20
2019-03-25T16:20:02.997Z,9.60
2019-03-25T16:22:34.817Z,9.63
2019-03-25T16:25:07.886Z,11.30
2019-03-25T16:27:39.667Z,9.90
2019-03-25T16:30:12.067Z,12.07
2019-03-25T16:32:43.966Z,5.33
2019-03-25T16:35:16.191Z,4.80
2019-03-25T16:37:48.044Z,8.50
2019-03-25T16:40:20.124Z,5.13
2019-03-25T16:42:51.912Z,4.33
2019-03-25T16:45:24.780Z,4.13
2019-03-25T16:47:56.740Z,3.00
2019-03-25T16:50:28.638Z,3.90
2019-03-25T16:53:00.443Z,6.00
2019-03-25T16:55:32.268Z,4.80
2019-03-25T16:58:04.093Z,4.27
2019-03-25T17:00:36.000Z,4.13
2019-03-25T17:03:08.382Z,4.13
2019-03-25T17:05:42.353Z,3.77
2019-03-25T17:08:13.875Z,5.63
2019-03-25T17:10:45.758Z,4.07
2019-03-25T17:13:18.485Z,4.30
2019-03-25T17:15:50.622Z,7.63
2019-03-25T17:18:23.774Z,6.47
2019-03-25T17:20:55.751Z,7.10
2019-03-25T17:23:27.713Z,4.97
2019-03-25T17:25:59.910Z,6.17
2019-03-25T17:28:32.116Z,10.33
2019-03-25T17:31:04.112Z,9.43
2019-03-25T17:33:35.947Z,6.80
2019-03-25T17:36:08.026Z,4.90
2019-03-25T17:38:42.736Z,6.87
2019-03-25T17:41:13.692Z,5.60
2019-03-25T17:43:45.590Z,14.43
2019-03-25T17:46:17.426Z,8.60
2019-03-25T17:48:49.685Z,5.07
2019-03-25T17:51:21.595Z,5.03
2019-03-25T17:53:53.676Z,8.67
2019-03-25T17:56:25.717Z,6.37
2019-03-25T17:58:57.697Z,7.50
2019-03-25T18:01:34.825Z,12.53
2019-03-25T18:04:06.913Z,10.00
2019-03-25T18:06:38.891Z,5.30
2019-03-25T18:09:11.891Z,8.47
2019-03-25T18:11:43.867Z,7.70
2019-03-25T18:14:15.813Z,6.70
2019-03-25T18:16:48.905Z,6.83
2019-03-25T18:19:21.931Z,6.47
2019-03-25T18:21:54.005Z,8.20
2019-03-25T18:24:26.213Z,5.23
2019-03-25T18:26:58.203Z,9.20
2019-03-25T18:29:29.995Z,3.93
2019-03-25T18:32:01.992Z,3.90
2019-03-25T18:34:33.806Z,4.07
2019-03-25T18:37:05.802Z,3.50
2019-03-25T18:39:37.939Z,4.30
2019-03-25T18:42:09.931Z,4.67
2019-03-25T18:44:41.954Z,3.30
2019-03-25T18:47:14.002Z,2.97
2019-03-25T18:49:45.996Z,2.70
2019-03-25T18:52:18.167Z,2.90
2019-03-25T18:54:50.279Z,2.50
2019-03-25T18:57:22.206Z,2.90
2019-03-25T18:59:54.411Z,4.30
2019-03-25T19:02:26.767Z,3.30
2019-03-25T19:04:58.996Z,2.43
2019-03-25T19:07:31.098Z,2.20
2019-03-25T19:10:04.526Z,2.57
2019-03-25T19:12:36.879Z,2.33
2019-03-25T19:15:09.169Z,3.37
2019-03-25T19:17:41.079Z,3.40
2019-03-25T19:20:12.977Z,2.33
2019-03-25T19:22:44.971Z,4.70
2019-03-25T19:25:17.074Z,3.13
2019-03-25T19:27:49.475Z,2.70
2019-03-25T19:30:21.724Z,2.60
2019-03-25T19:32:53.833Z,2.47
2019-03-25T19:35:25.755Z,3.47
2019-03-25T19:37:57.746Z,2.90
2019-03-25T19:40:29.732Z,3.80
2019-03-25T19:43:01.682Z,4.23
2019-03-25T19:45:33.670Z,3.70
2019-03-25T19:48:06.941Z,3.47
2019-03-25T19:50:38.771Z,2.83
2019-03-25T19:53:19.029Z,3.37
2019-03-25T19:55:44.333Z,2.37
2019-03-25T19:58:16.292Z,2.40
2019-03-25T20:00:48.285Z,3.00
2019-03-25T20:03:20.141Z,4.93
2019-03-25T20:05:52.018Z,2.73
2019-03-25T20:08:23.887Z,3.07
2019-03-25T20:10:55.999Z,6.03
2019-03-25T20:13:27.856Z,2.73
2019-03-25T20:16:00.953Z,3.23
2019-03-25T20:18:32.804Z,2.57
2019-03-25T20:21:05.063Z,2.70
2019-03-25T20:23:37.048Z,2.63
2019-03-25T20:26:08.907Z,2.27
2019-03-25T20:28:40.949Z,2.23
2019-03-25T20:31:13.035Z,2.50
2019-03-25T20:33:45.123Z,2.60
2019-03-25T20:36:17.715Z,2.90
2019-03-25T20:38:50.230Z,4.27
2019-03-25T20:41:22.069Z,4.53
2019-03-25T20:43:53.922Z,9.60
2019-03-25T20:46:25.804Z,6.07
2019-03-25T20:48:57.682Z,9.40
2019-03-25T20:51:29.772Z,5.77
2019-03-25T20:54:01.764Z,6.10
2019-03-25T20:56:33.832Z,8.20
2019-03-25T20:59:07.085Z,5.20
2019-03-25T21:01:38.965Z,5.57
2019-03-25T21:04:11.872Z,4.33
2019-03-25T21:06:43.779Z,5.70
2019-03-25T21:09:15.588Z,4.73
2019-03-25T21:11:47.607Z,6.10
2019-03-25T21:14:19.497Z,5.40
2019-03-25T21:16:51.520Z,8.93
2019-03-25T21:19:23.743Z,6.83
2019-03-25T21:21:55.587Z,12.30
2019-03-25T21:24:27.954Z,10.87
2019-03-25T21:27:00.008Z,10.40
2019-03-25T21:29:32.210Z,6.80
2019-03-25T21:32:04.388Z,9.00
2019-03-25T21:34:36.719Z,9.53
2019-03-25T21:37:08.658Z,7.77
2019-03-25T21:39:40.753Z,10.93
2019-03-25T21:42:12.643Z,9.70
2019-03-25T21:44:44.824Z,8.40
2019-03-25T21:47:16.707Z,10.10
2019-03-25T21:49:48.703Z,8.93
2019-03-25T21:52:20.719Z,10.20
2019-03-25T21:54:53.005Z,9.30
2019-03-25T21:57:24.879Z,9.57
2019-03-25T21:59:57.231Z,8.47
2019-03-25T22:02:29.235Z,8.70
2019-03-25T22:05:01.301Z,8.50
2019-03-25T22:07:34.417Z,12.63
2019-03-25T22:10:06.953Z,9.37
2019-03-25T22:12:38.772Z,8.70
2019-03-25T22:15:11.535Z,9.13
2019-03-25T22:17:43.598Z,9.50
2019-03-25T22:20:16.033Z,8.97
2019-03-25T22:22:48.000Z,7.57
2019-03-25T22:25:20.212Z,9.33
2019-03-25T22:27:52.337Z,7.43
2019-03-25T22:30:25.896Z,10.63
2019-03-25T22:32:58.348Z,7.43
2019-03-25T22:35:30.399Z,9.43
2019-03-25T22:38:02.537Z,7.77
2019-03-25T22:40:34.446Z,6.90
2019-03-25T22:43:06.845Z,9.20
2019-03-25T22:45:38.925Z,9.40
2019-03-25T22:48:10.980Z,14.43
2019-03-25T22:50:43.145Z,7.47
2019-03-25T22:53:15.477Z,7.37
2019-03-25T22:55:47.698Z,6.90
2019-03-25T22:58:19.643Z,7.13
2019-03-25T23:00:51.827Z,7.30
2019-03-25T23:03:24.097Z,7.97
2019-03-25T23:05:56.496Z,7.80
2019-03-25T23:08:28.518Z,10.80
2019-03-25T23:11:00.725Z,9.57
2019-03-25T23:13:32.859Z,8.80
2019-03-25T23:16:05.290Z,9.13
2019-03-25T23:18:37.411Z,10.40
2019-03-25T23:21:09.442Z,8.10
2019-03-25T23:23:41.337Z,7.53
2019-03-25T23:26:14.385Z,12.27
2019-03-25T23:28:46.507Z,7.80
2019-03-25T23:31:19.062Z,8.83
2019-03-25T23:33:52.648Z,8.67
2019-03-25T23:36:25.319Z,8.30
2019-03-25T23:38:57.621Z,6.90
2019-03-25T23:41:29.850Z,9.83
2019-03-25T23:44:01.987Z,10.37
2019-03-25T23:46:34.428Z,10.40
2019-03-25T23:49:08.068Z,9.83
2019-03-25T23:51:40.275Z,8.60
2019-03-25T23:54:13.329Z,10.33
2019-03-25T23:56:45.943Z,10.10
2019-03-25T23:59:18.159Z,7.63
